Time;durP1;ratioP1;P1;durP2;ratioP2;P2;SDS_P1;SDS_P2;PMS_P1;PMS_P2;Temp;Humidity;BMP_temperature;BMP_pressure;BME280_temperature;BME280_humidity;BME280_pressure;Samples;Min_cycle;Max_cycle;Signal;HPM_P1;HPM_P2
2024/02/02 00:01:39;;;;;;;11.85;5.32;;;4.80;1.00;;;;;;7366333;19;20014;-71
2024/02/02 00:04:10;;;;;;;9.93;4.65;;;4.80;1.00;;;;;;7367774;19;20360;-71
2024/02/02 00:06:40;;;;;;;10.93;5.72;;;4.80;1.00;;;;;;7367063;19;20010;-71
2024/02/02 00:09:13;;;;;;;12.85;6.70;;;4.80;1.00;;;;;;7368535;19;20082;-71
2024/02/02 00:11:43;;;;;;;11.93;6.07;;;4.70;1.00;;;;;;7373582;19;20359;-72
2024/02/02 00:14:13;;;;;;;9.52;5.30;;;4.80;1.00;;;;;;7373121;19;20539;-72
2024/02/02 00:16:44;;;;;;;12.10;5.53;;;4.70;1.00;;;;;;7375355;19;20230;-71
2024/02/02 00:19:14;;;;;;;7.45;3.97;;;4.60;1.00;;;;;;7375068;19;20018;-71
2024/02/02 00:21:44;;;;;;;10.60;4.72;;;4.60;1.00;;;;;;7374344;19;20018;-71
2024/02/02 00:24:17;;;;;;;11.82;4.38;;;4.70;1.00;;;;;;7373141;19;20438;-72
2024/02/02 00:26:47;;;;;;;7.68;4.20;;;4.60;1.00;;;;;;7373989;19;20014;-71
2024/02/02 00:29:18;;;;;;;9.48;4.40;;;4.60;1.00;;;;;;7372696;19;20018;-72
2024/02/02 00:31:48;;;;;;;13.23;4.70;;;4.60;1.00;;;;;;7372335;19;20020;-70
2024/02/02 00:34:18;;;;;;;11.73;4.95;;;4.50;1.00;;;;;;7373399;19;20015;-73
2024/02/02 00:36:49;;;;;;;9.20;4.07;;;4.50;1.00;;;;;;7374535;19;20082;-70
2024/02/02 00:39:21;;;;;;;16.98;4.75;;;4.40;1.00;;;;;;7373633;19;20015;-72
2024/02/02 00:41:52;;;;;;;12.98;5.00;;;4.50;1.00;;;;;;7373508;19;20437;-72
2024/02/02 00:44:22;;;;;;;11.75;4.53;;;4.40;1.00;;;;;;7372412;19;20030;-72
2024/02/02 00:46:52;;;;;;;9.48;5.20;;;4.50;1.00;;;;;;7373661;19;20141;-71
2024/02/02 00:49:23;;;;;;;11.02;4.15;;;4.40;1.00;;;;;;7370212;19;20030;-71
2024/02/02 00:51:53;;;;;;;8.55;4.70;;;4.40;1.00;;;;;;7370384;19;20011;-72
2024/02/02 00:54:26;;;;;;;14.55;5.70;;;4.30;1.00;;;;;;7371602;19;20014;-72
2024/02/02 00:56:57;;;;;;;11.80;5.03;;;4.40;1.00;;;;;;7374514;19;20014;-71
2024/02/02 00:59:27;;;;;;;8.40;4.68;;;4.30;1.00;;;;;;7373456;19;21471;-72
2024/02/02 01:01:57;;;;;;;10.70;4.45;;;4.30;1.00;;;;;;7370617;19;20503;-71
2024/02/02 01:04:27;;;;;;;12.38;4.57;;;4.30;1.00;;;;;;7372592;19;20079;-72
2024/02/02 01:06:58;;;;;;;8.95;4.28;;;4.40;1.00;;;;;;7373637;19;20499;-71
2024/02/02 01:09:31;;;;;;;10.45;4.30;;;4.30;1.00;;;;;;7372370;19;20022;-71
2024/02/02 01:12:01;;;;;;;9.95;4.55;;;4.20;1.00;;;;;;7370114;19;20006;-73
2024/02/02 01:14:31;;;;;;;10.52;4.13;;;4.20;1.00;;;;;;7372391;19;20065;-71
2024/02/02 01:17:01;;;;;;;11.95;3.97;;;4.10;1.00;;;;;;7373263;19;20486;-71
2024/02/02 01:19:32;;;;;;;10.20;4.53;;;4.10;1.00;;;;;;7371326;19;20696;-73
2024/02/02 01:22:02;;;;;;;8.27;3.50;;;4.10;1.00;;;;;;7371128;19;20027;-71
2024/02/02 01:24:35;;;;;;;11.80;4.30;;;4.10;1.00;;;;;;7372827;19;20026;-71
2024/02/02 01:27:05;;;;;;;8.55;4.47;;;4.10;1.00;;;;;;7373528;19;20504;-71
2024/02/02 01:29:37;;;;;;;11.70;4.03;;;4.00;1.00;;;;;;7372839;19;20082;-71
2024/02/02 01:32:09;;;;;;;8.77;3.63;;;3.90;1.00;;;;;;7370832;19;20058;-71
2024/02/02 01:34:39;;;;;;;11.30;3.97;;;3.90;1.00;;;;;;7367709;19;20659;-71
2024/02/02 01:37:10;;;;;;;13.73;4.15;;;3.90;1.00;;;;;;7367239;19;20011;-71
2024/02/02 01:39:42;;;;;;;10.77;4.20;;;3.90;1.00;;;;;;7374098;19;20017;-71
2024/02/02 01:42:13;;;;;;;8.40;3.47;;;3.90;1.00;;;;;;7368551;19;20473;-71
2024/02/02 01:44:43;;;;;;;7.20;3.35;;;3.80;1.00;;;;;;7372546;19;20035;-72
2024/02/02 01:47:14;;;;;;;11.85;4.50;;;3.80;1.00;;;;;;7372467;19;20014;-72
2024/02/02 01:49:44;;;;;;;11.82;4.85;;;3.90;1.00;;;;;;7372359;19;20010;-71
2024/02/02 01:52:15;;;;;;;9.23;3.78;;;3.90;1.00;;;;;;7369234;19;20018;-71
2024/02/02 01:54:48;;;;;;;14.27;4.82;;;3.90;1.00;;;;;;7370662;19;20021;-70
2024/02/02 01:57:19;;;;;;;10.93;4.50;;;3.90;1.00;;;;;;7371151;19;20014;-71
2024/02/02 01:59:49;;;;;;;10.02;3.88;;;3.90;1.00;;;;;;7370973;19;20879;-71
2024/02/02 02:02:20;;;;;;;13.10;4.18;;;4.00;1.00;;;;;;7369407;19;20232;-71
2024/02/02 02:04:50;;;;;;;8.65;3.60;;;4.00;1.00;;;;;;7369738;19;20037;-70
2024/02/02 02:07:20;;;;;;;11.40;4.03;;;4.10;1.00;;;;;;7370323;19;20029;-71
2024/02/02 02:09:53;;;;;;;8.23;3.90;;;4.10;1.00;;;;;;7370987;19;20018;-71
2024/02/02 02:12:23;;;;;;;8.07;4.03;;;4.10;1.00;;;;;;7367546;19;20014;-71
2024/02/02 02:14:53;;;;;;;10.63;4.00;;;4.10;1.00;;;;;;7369113;19;20018;-70
2024/02/02 02:17:23;;;;;;;9.63;4.40;;;4.10;1.00;;;;;;7370947;19;20022;-71
2024/02/02 02:19:54;;;;;;;8.60;3.70;;;4.10;1.00;;;;;;7369619;19;20046;-70
2024/02/02 02:22:27;;;;;;;13.82;4.32;;;4.20;1.00;;;;;;7368251;19;20022;-71
2024/02/02 02:24:57;;;;;;;11.38;4.18;;;4.20;1.00;;;;;;7367676;19;20106;-71
2024/02/02 02:27:27;;;;;;;8.35;4.13;;;4.20;1.00;;;;;;7371735;19;20018;-72
2024/02/02 02:29:57;;;;;;;9.15;4.35;;;4.30;1.00;;;;;;7369399;19;20018;-71
2024/02/02 02:32:27;;;;;;;8.35;3.92;;;4.30;1.00;;;;;;7365700;19;20856;-71
2024/02/02 02:34:58;;;;;;;11.23;3.95;;;4.30;1.00;;;;;;7368523;19;20022;-71
2024/02/02 02:37:31;;;;;;;9.57;3.70;;;4.30;1.00;;;;;;7371471;19;20010;-72
2024/02/02 02:40:01;;;;;;;7.97;3.97;;;4.30;1.00;;;;;;7370021;19;20089;-71
2024/02/02 02:42:31;;;;;;;9.57;4.18;;;4.30;1.00;;;;;;7367764;19;20017;-70
2024/02/02 02:45:02;;;;;;;11.95;3.75;;;4.40;1.00;;;;;;7368774;19;20010;-71
2024/02/02 02:47:32;;;;;;;10.63;4.18;;;4.40;1.00;;;;;;7369066;19;20083;-71
2024/02/02 02:50:04;;;;;;;11.63;4.40;;;4.30;1.00;;;;;;7368738;19;20010;-71
2024/02/02 02:52:37;;;;;;;14.90;4.50;;;4.30;1.00;;;;;;7367372;19;20022;-71
2024/02/02 02:55:07;;;;;;;8.05;4.22;;;4.40;1.00;;;;;;7369006;19;20037;-70
2024/02/02 02:57:37;;;;;;;10.63;4.47;;;4.40;1.00;;;;;;7369863;19;20666;-72
2024/02/02 03:00:10;;;;;;;12.43;4.53;;;4.50;1.00;;;;;;7369831;19;20015;-71
2024/02/02 03:02:41;;;;;;;12.90;4.40;;;4.40;1.00;;;;;;7365744;19;20419;-70
2024/02/02 03:05:11;;;;;;;8.43;3.50;;;4.50;1.00;;;;;;7369372;19;20017;-72
2024/02/02 03:07:44;;;;;;;11.13;4.35;;;4.50;1.00;;;;;;7370571;19;20018;-70
2024/02/02 03:10:14;;;;;;;7.47;3.33;;;4.60;1.00;;;;;;7368475;19;20089;-71
2024/02/02 03:12:45;;;;;;;7.88;3.63;;;4.60;1.00;;;;;;7365947;19;20014;-71
2024/02/02 03:15:15;;;;;;;9.05;4.00;;;4.60;1.00;;;;;;7368480;19;20078;-71
2024/02/02 03:17:45;;;;;;;10.82;3.83;;;4.70;1.00;;;;;;7367336;19;20340;-70
2024/02/02 03:20:16;;;;;;;12.52;4.10;;;4.70;1.00;;;;;;7368559;19;20015;-71
2024/02/02 03:22:50;;;;;;;7.82;3.92;;;4.60;1.00;;;;;;7365404;19;20030;-71
2024/02/02 03:25:20;;;;;;;8.23;3.97;;;4.60;1.00;;;;;;7367369;19;20397;-71
2024/02/02 03:27:50;;;;;;;12.32;4.53;;;4.50;1.00;;;;;;7368706;19;20073;-71
2024/02/02 03:30:23;;;;;;;10.15;4.40;;;4.50;1.00;;;;;;7368016;19;20013;-70
2024/02/02 03:32:56;;;;;;;13.88;4.60;;;4.50;1.00;;;;;;7364737;19;20017;-72
2024/02/02 03:35:27;;;;;;;8.45;4.55;;;4.50;1.00;;;;;;7366475;19;20050;-71
2024/02/02 03:38:00;;;;;;;11.73;4.55;;;4.50;1.00;;;;;;7367709;19;20017;-71
2024/02/02 03:40:31;;;;;;;10.70;4.15;;;4.40;1.00;;;;;;7366299;19;20011;-71
2024/02/02 03:43:01;;;;;;;13.27;5.05;;;4.40;1.00;;;;;;7364720;19;20043;-71
2024/02/02 03:45:32;;;;;;;10.65;4.43;;;4.40;1.00;;;;;;7367912;19;20043;-71
2024/02/02 03:48:02;;;;;;;11.27;4.57;;;4.40;1.00;;;;;;7368494;19;20039;-70
2024/02/02 03:50:32;;;;;;;12.02;4.15;;;4.50;1.00;;;;;;7367339;19;20018;-71
2024/02/02 03:53:06;;;;;;;10.68;3.70;;;4.50;1.00;;;;;;7365402;19;20464;-72
2024/02/02 03:55:36;;;;;;;10.73;4.80;;;4.50;1.00;;;;;;7366645;19;20411;-71
2024/02/02 03:58:06;;;;;;;9.23;3.90;;;4.50;1.00;;;;;;7367797;19;20010;-70
2024/02/02 04:00:37;;;;;;;10.70;4.43;;;4.50;1.00;;;;;;7365115;19;20014;-70
2024/02/02 04:03:08;;;;;;;8.48;4.30;;;4.50;1.00;;;;;;7363715;19;20054;-71
2024/02/02 04:05:39;;;;;;;8.02;4.40;;;4.50;1.00;;;;;;7367666;19;20022;-71
2024/02/02 04:08:12;;;;;;;8.00;3.92;;;4.60;1.00;;;;;;7368395;19;20045;-71
2024/02/02 04:10:42;;;;;;;9.95;4.60;;;4.60;1.00;;;;;;7367944;19;20002;-71
2024/02/02 04:13:13;;;;;;;8.82;4.43;;;4.60;1.00;;;;;;7366972;19;20003;-70
2024/02/02 04:15:43;;;;;;;13.98;4.50;;;4.70;1.00;;;;;;7368178;19;20755;-70
2024/02/02 04:18:13;;;;;;;11.98;4.15;;;4.70;1.00;;;;;;7368913;19;20011;-71
2024/02/02 04:20:44;;;;;;;9.05;4.20;;;4.70;1.00;;;;;;7369300;19;20475;-71
2024/02/02 04:23:16;;;;;;;13.52;4.97;;;4.70;1.00;;;;;;7365082;19;20020;-71
2024/02/02 04:25:47;;;;;;;9.15;4.10;;;4.70;1.00;;;;;;7367472;19;20017;-71
2024/02/02 04:28:17;;;;;;;9.25;4.00;;;4.70;1.00;;;;;;7368942;19;20046;-71
2024/02/02 04:30:47;;;;;;;10.27;4.15;;;4.70;1.00;;;;;;7365943;19;20360;-71
2024/02/02 04:33:17;;;;;;;6.70;4.05;;;4.70;1.00;;;;;;7364815;19;20010;-71
2024/02/02 04:35:47;;;;;;;8.38;4.50;;;4.70;1.00;;;;;;7364254;19;20074;-71
2024/02/02 04:38:20;;;;;;;9.77;4.50;;;4.70;1.00;;;;;;7367598;19;20086;-71
2024/02/02 04:40:50;;;;;;;8.80;4.47;;;4.70;1.00;;;;;;7364930;19;20463;-71
2024/02/02 04:43:21;;;;;;;10.38;4.93;;;4.70;1.00;;;;;;7363671;19;20011;-71
2024/02/02 04:45:51;;;;;;;7.90;4.30;;;4.70;1.00;;;;;;7363247;19;20035;-71
2024/02/02 04:48:21;;;;;;;7.75;4.35;;;4.80;1.00;;;;;;7366574;19;20014;-71
2024/02/02 04:50:51;;;;;;;9.43;5.18;;;4.80;1.00;;;;;;7365280;19;20011;-71
2024/02/02 04:53:24;;;;;;;11.40;5.32;;;4.80;1.00;;;;;;7365897;19;20031;-71
2024/02/02 04:55:54;;;;;;;9.30;4.43;;;4.70;1.00;;;;;;7370444;19;20026;-70
2024/02/02 04:58:25;;;;;;;13.02;5.47;;;4.70;1.00;;;;;;7373641;19;20106;-72
2024/02/02 05:00:55;;;;;;;8.27;4.75;;;4.80;1.00;;;;;;7367680;19;21006;-72
2024/02/02 05:03:25;;;;;;;11.90;4.65;;;4.80;1.00;;;;;;7371726;19;20018;-70
2024/02/02 05:05:56;;;;;;;11.02;4.80;;;4.80;1.00;;;;;;7372075;19;20054;-71
2024/02/02 05:08:29;;;;;;;7.22;4.80;;;4.80;1.00;;;;;;7373815;19;20035;-71
2024/02/02 05:10:59;;;;;;;9.35;4.55;;;4.80;1.00;;;;;;7373542;19;20561;-70
2024/02/02 05:13:29;;;;;;;8.68;4.30;;;4.80;1.00;;;;;;7370786;19;20024;-72
2024/02/02 05:15:59;;;;;;;13.02;4.95;;;4.90;1.00;;;;;;7371969;19;20010;-71
2024/02/02 05:18:29;;;;;;;11.02;4.38;;;4.90;1.00;;;;;;7372779;19;20006;-71
2024/02/02 05:21:00;;;;;;;9.10;4.68;;;4.90;1.00;;;;;;7371765;19;20007;-70
2024/02/02 05:23:33;;;;;;;9.80;4.70;;;4.90;1.00;;;;;;7370400;19;20007;-71
2024/02/02 05:26:03;;;;;;;9.95;4.63;;;4.90;1.00;;;;;;7372523;19;20463;-72
2024/02/02 05:28:33;;;;;;;7.85;4.40;;;4.90;1.00;;;;;;7371533;19;20007;-71
2024/02/02 05:31:03;;;;;;;8.80;4.25;;;5.00;1.00;;;;;;7370361;19;20017;-70
2024/02/02 05:33:34;;;;;;;9.30;4.82;;;4.90;1.00;;;;;;7369636;19;20014;-72
2024/02/02 05:36:04;;;;;;;11.70;5.30;;;4.90;1.00;;;;;;7372497;19;20493;-70
2024/02/02 05:38:40;;;;;;;11.02;5.00;;;4.90;1.00;;;;;;7371659;19;20812;-71
2024/02/02 05:41:10;;;;;;;9.68;4.82;;;4.90;1.00;;;;;;7371377;19;20077;-70
2024/02/02 05:43:40;;;;;;;10.75;4.80;;;4.90;1.00;;;;;;7370869;19;20038;-71
2024/02/02 05:46:10;;;;;;;12.35;5.13;;;4.90;1.00;;;;;;7371695;19;20033;-71
2024/02/02 05:48:41;;;;;;;9.20;4.95;;;4.90;1.00;;;;;;7371741;19;20459;-71
2024/02/02 05:51:11;;;;;;;12.20;5.10;;;5.00;1.00;;;;;;7370393;19;20027;-71
2024/02/02 05:53:44;;;;;;;10.00;5.28;;;5.00;1.00;;;;;;7370415;19;20019;-71
2024/02/02 05:56:14;;;;;;;12.68;5.78;;;5.00;1.00;;;;;;7369942;19;20414;-71
2024/02/02 05:58:44;;;;;;;14.27;6.03;;;4.90;1.00;;;;;;7371077;19;20031;-70
2024/02/02 06:01:16;;;;;;;12.50;5.80;;;4.90;1.00;;;;;;7368029;19;20010;-70
2024/02/02 06:03:46;;;;;;;11.77;6.15;;;4.90;1.00;;;;;;7369626;19;20012;-71
2024/02/02 06:06:17;;;;;;;10.60;5.45;;;4.80;1.00;;;;;;7368020;19;20520;-70
2024/02/02 06:08:49;;;;;;;15.15;6.38;;;4.80;1.00;;;;;;7368750;19;20018;-71
2024/02/02 06:11:20;;;;;;;11.93;5.55;;;4.70;1.00;;;;;;7365083;19;20814;-71
2024/02/02 06:13:54;;;;;;;14.55;8.23;;;4.80;1.00;;;;;;7369230;19;20020;-72
2024/02/02 06:16:25;;;;;;;20.20;11.57;;;4.80;1.00;;;;;;7363427;19;20010;-71
2024/02/02 06:18:56;;;;;;;18.88;11.23;;;4.80;1.00;;;;;;7368425;19;20015;-71
2024/02/02 06:21:27;;;;;;;21.02;10.30;;;4.90;1.00;;;;;;7367671;19;20468;-71
2024/02/02 06:24:00;;;;;;;14.55;8.73;;;5.00;1.00;;;;;;7368513;19;20010;-71
2024/02/02 06:26:30;;;;;;;20.75;8.25;;;5.00;1.00;;;;;;7370031;19;20015;-70
2024/02/02 06:29:00;;;;;;;13.45;7.43;;;5.10;1.00;;;;;;7369235;19;20010;-70
2024/02/02 06:31:30;;;;;;;14.50;8.02;;;5.10;1.00;;;;;;7368063;19;20015;-70
2024/02/02 06:34:00;;;;;;;13.05;8.07;;;5.20;1.00;;;;;;7369041;19;20039;-71
2024/02/02 06:36:31;;;;;;;15.10;9.20;;;5.20;1.00;;;;;;7369220;19;20376;-71
2024/02/02 06:39:04;;;;;;;14.48;8.15;;;5.30;1.00;;;;;;7369031;19;20006;-71
2024/02/02 06:41:34;;;;;;;11.93;7.18;;;5.30;1.00;;;;;;7370480;19;20015;-71
2024/02/02 06:44:04;;;;;;;10.07;6.95;;;5.40;1.00;;;;;;7370749;19;20090;-71
2024/02/02 06:46:34;;;;;;;11.95;6.70;;;5.40;1.00;;;;;;7369761;19;20015;-72
2024/02/02 06:49:05;;;;;;;11.82;5.95;;;5.40;1.00;;;;;;7367438;19;20013;-71
2024/02/02 06:51:35;;;;;;;13.68;6.47;;;5.40;1.00;;;;;;7367213;19;20021;-70
2024/02/02 06:54:08;;;;;;;10.55;5.70;;;5.40;1.00;;;;;;7369173;19;20035;-70
2024/02/02 06:56:41;;;;;;;10.13;5.90;;;5.50;1.00;;;;;;7369628;19;20094;-71
2024/02/02 06:59:12;;;;;;;10.73;5.93;;;5.40;1.00;;;;;;7368680;19;20463;-70
2024/02/02 07:01:43;;;;;;;10.23;6.05;;;5.50;1.00;;;;;;7366747;19;20025;-71
2024/02/02 07:04:15;;;;;;;12.25;5.95;;;5.50;1.00;;;;;;7368873;19;20014;-71
2024/02/02 07:06:47;;;;;;;9.90;6.13;;;5.50;1.00;;;;;;7369204;19;20007;-71
2024/02/02 07:09:33;;;;;;;12.43;6.78;;;5.50;1.00;;;;;;7369225;19;20014;-71
2024/02/02 07:12:08;;;;;;;13.25;6.63;;;5.50;1.00;;;;;;7364010;19;20015;-71
2024/02/02 07:14:47;;;;;;;10.25;7.03;;;5.50;1.00;;;;;;7365103;19;20019;-70
2024/02/02 07:17:34;;;;;;;9.07;5.95;;;5.60;1.00;;;;;;7366514;19;20019;-70
2024/02/02 07:20:11;;;;;;;10.52;6.10;;;5.60;1.00;;;;;;7367305;19;20136;-71
2024/02/02 07:22:42;;;;;;;8.90;5.43;;;5.60;1.00;;;;;;7364720;19;20011;-71
2024/02/02 07:25:20;;;;;;;10.27;6.10;;;5.60;1.00;;;;;;7366462;19;20007;-71
2024/02/02 07:27:54;;;;;;;17.05;10.15;;;5.70;1.00;;;;;;7365782;19;20010;-70
2024/02/02 07:30:48;;;;;;;19.67;10.88;;;5.70;1.00;;;;;;7367236;19;20014;-70
2024/02/02 07:33:28;;;;;;;19.83;11.13;;;5.70;1.00;;;;;;7362609;19;20014;-73
2024/02/02 07:36:00;;;;;;;18.02;9.00;;;5.80;1.00;;;;;;7367827;19;20027;-71
2024/02/02 07:38:53;;;;;;;13.35;7.65;;;5.80;1.00;;;;;;7365637;19;20022;-71
2024/02/02 07:41:28;;;;;;;10.40;6.03;;;5.80;1.00;;;;;;6856012;19;2003902;-70
2024/02/02 07:44:01;;;;;;;12.00;6.68;;;5.80;1.00;;;;;;7367294;19;20030;-70
2024/02/02 07:46:32;;;;;;;12.88;6.75;;;5.80;1.00;;;;;;7367328;19;20010;-72
2024/02/02 07:49:03;;;;;;;11.52;5.53;;;5.80;1.00;;;;;;7365923;19;20492;-71
2024/02/02 07:51:37;;;;;;;10.98;5.55;;;5.90;1.00;;;;;;7365567;19;20015;-73
2024/02/02 07:54:08;;;;;;;12.27;6.70;;;5.90;1.00;;;;;;7364805;19;20530;-71
2024/02/02 07:56:40;;;;;;;16.35;6.65;;;5.90;1.00;;;;;;7366384;19;20501;-71
2024/02/02 07:59:11;;;;;;;10.27;5.95;;;6.00;1.00;;;;;;7367497;19;20488;-70
2024/02/02 08:01:41;;;;;;;11.60;6.88;;;6.00;1.00;;;;;;7362869;19;20019;-71
2024/02/02 08:04:11;;;;;;;16.13;6.90;;;6.00;1.00;;;;;;7362005;19;20006;-71
2024/02/02 08:06:48;;;;;;;13.95;8.73;;;6.00;1.00;;;;;;7364446;19;20085;-71
2024/02/02 08:09:19;;;;;;;10.90;7.70;;;6.10;1.00;;;;;;7364781;19;20455;-70
2024/02/02 08:11:52;;;;;;;11.38;6.82;;;6.10;1.00;;;;;;7362634;19;20010;-70
2024/02/02 08:14:23;;;;;;;11.25;7.18;;;6.10;1.00;;;;;;7364972;19;20018;-70
2024/02/02 08:16:53;;;;;;;11.80;6.57;;;6.10;1.00;;;;;;7363538;19;20433;-74
2024/02/02 08:19:23;;;;;;;10.38;7.43;;;6.10;1.00;;;;;;7364593;19;20026;-71
2024/02/02 08:21:55;;;;;;;12.88;7.07;;;6.10;1.00;;;;;;7362242;19;20037;-72
2024/02/02 08:24:26;;;;;;;11.77;6.70;;;6.20;1.00;;;;;;7363859;19;20011;-71
2024/02/02 08:26:58;;;;;;;12.05;6.72;;;6.20;1.00;;;;;;7364824;19;20104;-71
2024/02/02 08:29:29;;;;;;;11.15;7.20;;;6.20;1.00;;;;;;7363056;19;20018;-71
2024/02/02 08:32:00;;;;;;;11.90;7.18;;;6.20;1.00;;;;;;7367726;19;20019;-73
2024/02/02 08:34:30;;;;;;;15.85;6.95;;;6.30;1.00;;;;;;7370497;19;20026;-71
2024/02/02 08:37:01;;;;;;;10.82;6.95;;;6.30;1.00;;;;;;7369651;19;20021;-71
2024/02/02 08:39:36;;;;;;;13.18;6.78;;;6.40;1.00;;;;;;7371475;19;20033;-71
2024/02/02 08:42:21;;;;;;;11.15;6.78;;;6.30;1.00;;;;;;7369761;19;20021;-71
2024/02/02 08:44:51;;;;;;;10.23;7.13;;;6.20;1.00;;;;;;7366537;19;20049;-70
2024/02/02 08:47:22;;;;;;;13.48;7.80;;;6.30;1.00;;;;;;7372254;19;20014;-70
2024/02/02 08:49:55;;;;;;;12.55;7.93;;;6.40;1.00;;;;;;7372530;19;20082;-71
2024/02/02 08:52:29;;;;;;;;;;;6.50;1.00;;;;;;7370148;19;20070;-72
2024/02/02 08:55:01;;;;;;;11.77;6.88;;;6.50;1.00;;;;;;7371311;19;19926;-70
2024/02/02 08:57:49;;;;;;;10.93;6.60;;;6.60;1.00;;;;;;7372084;19;20014;-70
2024/02/02 09:00:41;;;;;;;12.73;7.75;;;6.70;1.00;;;;;;7372986;19;20374;-71
2024/02/02 09:03:27;;;;;;;8.43;6.93;;;6.70;1.00;;;;;;6861033;19;2004171;-70
2024/02/02 09:05:58;;;;;;;9.13;7.25;;;6.80;1.00;;;;;;7370207;19;20475;-70
2024/02/02 09:08:33;;;;;;;10.38;6.82;;;6.80;1.00;;;;;;7372926;19;20013;-70
2024/02/02 09:11:23;;;;;;;12.23;7.00;;;6.80;1.00;;;;;;7368765;19;20010;-69
2024/02/02 09:14:18;;;;;;;14.63;7.00;;;6.80;1.00;;;;;;7370577;19;20051;-70
2024/02/02 09:16:51;;;;;;;9.82;6.63;;;6.80;1.00;;;;;;7370744;19;20125;-70
2024/02/02 09:19:30;;;;;;;10.30;7.15;;;6.80;1.00;;;;;;7368950;19;20504;-70
2024/02/02 09:22:03;;;;;;;8.98;7.00;;;6.90;1.00;;;;;;7367770;19;20680;-70
2024/02/02 09:24:53;;;;;;;10.13;6.87;;;7.00;1.00;;;;;;7370581;19;20021;-70
2024/02/02 09:27:32;;;;;;;11.48;7.22;;;7.10;1.00;;;;;;7368732;19;20018;-70
2024/02/02 09:30:09;;;;;;;10.05;6.95;;;7.10;1.00;;;;;;7371381;19;20021;-70
2024/02/02 09:32:39;;;;;;;17.80;12.05;;;7.10;1.00;;;;;;7367969;19;20039;-70
2024/02/02 09:35:50;;;;;;;11.05;8.27;;;7.30;1.00;;;;;;7369752;19;20027;-71
2024/02/02 09:38:20;;;;;;;13.00;7.72;;;7.40;1.00;;;;;;6860850;19;2004019;-70
2024/02/02 09:41:24;;;;;;;10.25;7.22;;;7.40;1.00;;;;;;7366164;19;20047;-70
2024/02/02 09:44:03;;;;;;;10.18;8.02;;;7.40;1.00;;;;;;6654512;19;2004587;-70
2024/02/02 09:46:49;;;;;;;10.00;7.65;;;7.50;1.00;;;;;;7369769;19;20017;-71
2024/02/02 09:49:30;;;;;;;9.93;7.57;;;7.40;1.00;;;;;;7370881;19;20014;-71
2024/02/02 09:52:11;;;;;;;13.85;7.85;;;7.30;1.00;;;;;;7365556;19;20006;-71
2024/02/02 09:54:50;;;;;;;11.35;7.55;;;7.40;1.00;;;;;;7370715;19;20078;-70
2024/02/02 09:57:31;;;;;;;9.77;7.82;;;7.60;1.00;;;;;;7371338;19;20467;-71
2024/02/02 10:00:08;;;;;;;10.63;7.20;;;7.60;1.00;;;;;;7363903;19;20415;-71
2024/02/02 10:02:58;;;;;;;11.98;7.97;;;7.60;1.00;;;;;;7366167;19;20471;-70
2024/02/02 10:05:39;;;;;;;13.20;7.32;;;7.70;1.00;;;;;;7365963;19;20010;-70
2024/02/02 10:08:23;;;;;;;12.85;6.90;;;7.70;1.00;;;;;;7367902;19;20044;-71
2024/02/02 10:11:13;;;;;;;8.77;6.77;;;7.70;1.00;;;;;;7369086;19;20038;-71
2024/02/02 10:13:59;;;;;;;9.35;6.78;;;7.70;1.00;;;;;;6857646;19;2004399;-69
2024/02/02 10:16:41;;;;;;;11.13;7.25;;;7.60;1.00;;;;;;7364923;19;20010;-70
2024/02/02 10:19:47;;;;;;;11.30;7.25;;;7.60;1.00;;;;;;7369532;19;20090;-72
2024/02/02 10:22:49;;;;;;;9.75;6.82;;;7.70;1.00;;;;;;6856440;19;2003850;-71
2024/02/02 10:25:37;;;;;;;10.15;7.18;;;7.80;1.00;;;;;;6856356;19;2004553;-70
2024/02/02 10:28:23;;;;;;;9.52;7.13;;;7.90;1.00;;;;;;7366819;19;20006;-70
2024/02/02 10:31:07;;;;;;;11.95;7.65;;;8.00;1.00;;;;;;7368263;19;20085;-71
2024/02/02 10:33:51;;;;;;;14.03;6.67;;;8.10;1.00;;;;;;7364659;19;20018;-70
2024/02/02 10:36:34;;;;;;;15.00;6.40;;;8.30;1.00;;;;;;7368006;19;20519;-72
2024/02/02 10:39:26;;;;;;;10.88;5.85;;;8.30;1.00;;;;;;7369596;19;20010;-70
2024/02/02 10:42:17;;;;;;;7.78;6.20;;;8.50;1.00;;;;;;6855574;19;2003890;-71
2024/02/02 10:45:00;;;;;;;8.90;5.30;;;8.60;1.00;;;;;;6857861;19;2003839;-71
2024/02/02 10:47:42;;;;;;;5.78;5.13;;;8.50;1.00;;;;;;7368829;19;20021;-71
2024/02/02 10:50:22;;;;;;;11.07;5.00;;;8.50;1.00;;;;;;7366682;19;20097;-71
2024/02/02 10:53:11;;;;;;;9.27;4.97;;;8.60;1.00;;;;;;7363108;19;20515;-70
2024/02/02 10:55:49;;;;;;;7.60;4.93;;;8.80;1.00;;;;;;7365739;19;20027;-71
2024/02/02 10:58:31;;;;;;;8.38;5.00;;;8.90;1.00;;;;;;7369584;19;20247;-71
2024/02/02 11:01:10;;;;;;;7.50;4.80;;;9.10;1.00;;;;;;7364262;19;20055;-70
2024/02/02 11:03:45;;;;;;;8.43;5.47;;;9.10;1.00;;;;;;7367047;19;20526;-71
2024/02/02 11:06:24;;;;;;;6.70;5.28;;;9.10;1.00;;;;;;7366741;19;20081;-70
2024/02/02 11:09:09;;;;;;;7.72;5.82;;;9.20;1.00;;;;;;7366816;19;20091;-69
2024/02/02 11:11:46;;;;;;;7.20;5.25;;;9.30;1.00;;;;;;7365261;19;20101;-71
2024/02/02 11:14:26;;;;;;;9.40;5.38;;;9.70;1.00;;;;;;7364886;19;20025;-71
2024/02/02 11:17:02;;;;;;;6.05;4.30;;;9.80;1.00;;;;;;7367687;19;20103;-71
2024/02/02 11:19:52;;;;;;;5.78;3.80;;;9.80;1.00;;;;;;7370050;19;20030;-70
2024/02/02 11:22:27;;;;;;;5.10;3.90;;;9.60;1.00;;;;;;6856021;19;2004737;-71
2024/02/02 11:25:11;;;;;;;4.63;4.10;;;9.70;1.00;;;;;;7363338;19;20014;-71
2024/02/02 11:27:48;;;;;;;6.13;4.05;;;9.70;1.00;;;;;;7368369;19;20007;-71
2024/02/02 11:30:45;;;;;;;7.35;4.05;;;9.80;1.00;;;;;;7367213;19;20019;-71
2024/02/02 11:33:29;;;;;;;6.05;3.75;;;10.00;1.00;;;;;;6858252;19;2004881;-71
2024/02/02 11:36:12;;;;;;;5.65;3.60;;;10.10;1.00;;;;;;7361139;19;20031;-71
2024/02/02 11:38:54;;;;;;;6.57;3.65;;;10.20;1.00;;;;;;7369077;19;20038;-71
2024/02/02 11:41:31;;;;;;;4.50;3.28;;;10.30;1.00;;;;;;7366248;19;20035;-70
2024/02/02 11:44:03;;;;;;;4.20;2.97;;;10.50;1.00;;;;;;7367483;19;20015;-70
2024/02/02 11:46:35;;;;;;;4.88;2.58;;;10.30;1.00;;;;;;7366648;19;20549;-70
2024/02/02 11:49:11;;;;;;;3.78;2.40;;;10.40;1.00;;;;;;7367300;19;20022;-70
2024/02/02 11:51:48;;;;;;;3.15;2.13;;;10.50;1.00;;;;;;7363334;19;20017;-70
2024/02/02 11:54:24;;;;;;;3.03;2.10;;;10.70;1.00;;;;;;7367157;19;20082;-71
2024/02/02 11:56:58;;;;;;;2.33;1.60;;;10.70;1.00;;;;;;7363750;19;20938;-70
2024/02/02 11:59:31;;;;;;;5.00;3.03;;;10.70;1.00;;;;;;7364274;19;20014;-69
2024/02/02 12:02:16;;;;;;;4.78;2.53;;;10.90;1.00;;;;;;7363604;19;20024;-70
2024/02/02 12:04:48;;;;;;;2.10;1.40;;;10.80;1.00;;;;;;7369417;19;20022;-70
2024/02/02 12:07:30;;;;;;;4.05;1.65;;;10.80;1.00;;;;;;7372342;19;20042;-70
2024/02/02 12:10:04;;;;;;;2.10;1.13;;;10.70;1.00;;;;;;7373560;19;20010;-70
2024/02/02 12:12:38;;;;;;;;;;;10.90;1.00;;;;;;7370234;19;20090;-70
2024/02/02 12:15:10;;;;;;;2.63;1.73;;;10.90;1.00;;;;;;7373848;19;19994;-69
2024/02/02 12:17:41;;;;;;;2.40;1.00;;;10.90;1.00;;;;;;7373252;19;20628;-70
2024/02/02 12:20:17;;;;;;;2.13;1.20;;;10.90;1.00;;;;;;7372303;19;20017;-71
2024/02/02 12:22:48;;;;;;;3.70;1.35;;;10.90;1.00;;;;;;7370511;19;20066;-71
2024/02/02 12:25:19;;;;;;;2.45;1.25;;;11.10;1.00;;;;;;7373290;19;20021;-71
2024/02/02 12:27:52;;;;;;;2.55;1.38;;;11.00;1.00;;;;;;7371967;19;20078;-69
2024/02/02 12:30:22;;;;;;;4.50;1.27;;;11.00;1.00;;;;;;7372643;19;20014;-70
2024/02/02 12:32:57;;;;;;;4.70;1.40;;;11.10;1.00;;;;;;7370064;19;20010;-70
2024/02/02 12:35:28;;;;;;;5.88;1.60;;;11.10;1.00;;;;;;7372660;19;20011;-70
2024/02/02 12:37:58;;;;;;;4.07;1.52;;;11.10;1.00;;;;;;7370010;19;20010;-71
2024/02/02 12:40:29;;;;;;;2.35;1.45;;;11.20;1.00;;;;;;7370674;19;20010;-71
2024/02/02 12:43:05;;;;;;;2.22;1.15;;;11.10;1.00;;;;;;7369336;19;20019;-71
2024/02/02 12:45:36;;;;;;;2.13;1.23;;;11.20;1.00;;;;;;7370123;19;20014;-71
2024/02/02 12:48:09;;;;;;;3.33;1.10;;;11.20;1.00;;;;;;7370806;19;20010;-71
2024/02/02 12:50:41;;;;;;;4.65;1.40;;;11.40;1.00;;;;;;7370946;19;20010;-71
2024/02/02 12:53:11;;;;;;;3.38;1.80;;;11.40;1.00;;;;;;7369132;19;20014;-70
2024/02/02 12:55:41;;;;;;;6.88;1.70;;;11.30;1.00;;;;;;7369772;19;20313;-70
2024/02/02 12:58:14;;;;;;;4.13;1.63;;;11.30;1.00;;;;;;7372197;19;20010;-70
2024/02/02 13:00:44;;;;;;;1.45;1.20;;;11.30;1.00;;;;;;7370085;19;20094;-70
2024/02/02 13:03:15;;;;;;;3.45;1.50;;;11.20;1.00;;;;;;7369624;19;20018;-70
2024/02/02 13:05:45;;;;;;;3.45;1.80;;;11.20;1.00;;;;;;7369941;19;20014;-70
2024/02/02 13:08:16;;;;;;;4.88;1.42;;;11.30;1.00;;;;;;7370716;19;20607;-70
2024/02/02 13:10:48;;;;;;;3.67;1.50;;;11.30;1.00;;;;;;7369896;19;20699;-70
2024/02/02 13:13:26;;;;;;;2.85;1.30;;;11.10;1.00;;;;;;7369500;19;20014;-70
2024/02/02 13:15:57;;;;;;;5.22;1.33;;;11.30;1.00;;;;;;7367030;19;20109;-71
2024/02/02 13:18:28;;;;;;;2.47;0.85;;;11.00;1.00;;;;;;7370400;19;20011;-70
2024/02/02 13:20:59;;;;;;;2.40;1.40;;;11.00;1.00;;;;;;7366386;19;20010;-70
2024/02/02 13:23:30;;;;;;;5.70;1.40;;;11.20;1.00;;;;;;7370194;19;20010;-70
2024/02/02 13:26:06;;;;;;;6.03;1.80;;;11.20;1.00;;;;;;7368429;19;20745;-71
2024/02/02 13:28:50;;;;;;;4.68;1.35;;;11.20;1.00;;;;;;7369315;19;20598;-70
2024/02/02 13:31:22;;;;;;;3.15;1.60;;;11.40;1.00;;;;;;7365621;19;20413;-71
2024/02/02 13:33:56;;;;;;;6.18;1.75;;;11.40;1.00;;;;;;7368745;19;20336;-71
2024/02/02 13:36:29;;;;;;;1.98;1.17;;;11.50;1.00;;;;;;7369365;19;20093;-70